• Join FlightAware (Why Join?)
  • Login
  • US Flag 
04:38AM EDT


 

Airport Tracker/Info


-or-


 

Live Flight TrackerFlight Track Log ✈ BOE523 ✈ 01-Jun-2011 ✈ KPAE - KPAE

Flight Track Log - Related Links

Times and Time Zones

All times are in EDT time to prevent confusion due to time zone crossing. See the BOE523 flight status page for this flight to view local times or setup timezone preferences in your user account.

Time Position Orientation Groundspeed Altitude Reporting Facility
EDT Latitude Longitude Course Direction KTS MPH feet Rate Location/Type
12:55PM 47.7687 -122.2833 358° North  Level FlightAware Approximate
12:57PM 47.8689 -122.2875 180° South 137 158 2,500  Level Seattle Center
12:57PM 47.8628 -122.2875 167° South 162 186 2,800 660 Climbing Seattle Center
12:58PM 47.8336 -122.2772 127° Southeast 182 209 3,000 180 Climbing Seattle Center
12:58PM 47.8208 -122.2519 126° Southeast 217 250 3,000 1,440 Level Seattle Center
12:59PM 47.7886 -122.1869 127° Southeast 257 296 4,500 1,920 Climbing Seattle Center
12:59PM 47.7739 -122.1581 129° Southeast 263 303 5,000 960 Climbing Seattle Center
01:00PM 47.7414 -122.0975 130° Southeast 270 311 5,500 1,740 Climbing Seattle Center
01:00PM 47.7253 -122.0694 143° Southeast 273 314 6,800 2,700 Climbing Seattle Center
01:01PM 47.6672 -122.0047 140° Southeast 280 322 9,200 2,520 Climbing Seattle Center
01:02PM 47.6028 -121.9258 142° Southeast 299 344 12,000 2,520 Climbing Seattle Center
01:03PM 47.5200 -121.8286 137° Southeast 383 441 14,400 1,440 Climbing Seattle Center
01:04PM 47.4406 -121.7189 97° East 393 452 15,000 1,980 Climbing Seattle Center
01:05PM 47.4247 -121.5278 91° East 411 473 18,500 3,060 Climbing Seattle Center
01:06PM 47.4231 -121.3578 91° East 418 481 21,300 2,580 Climbing Seattle Center
01:07PM 47.4206 -121.1792 92° East 436 502 23,800 2,160 Climbing Seattle Center
01:08PM 47.4167 -120.9928 91° East 455 524 25,800 2,160 Climbing Seattle Center
01:09PM 47.4131 -120.7761 92° East 477 549 28,200 2,100 Climbing Seattle Center
01:10PM 47.4092 -120.5747 91° East 487 560 30,200 1,860 Climbing Seattle Center
01:11PM 47.4058 -120.3708 93° East 496 571 32,100 1,800 Climbing Seattle Center
01:12PM 47.3989 -120.1672 92° East 497 572 33,900 1,620 Climbing Seattle Center
01:13PM 47.3933 -119.9647 93° East 497 572 35,400 1,320 Climbing Seattle Center
01:15PM 47.3861 -119.7603 92° East 499 574 36,700 780 Climbing Seattle Center
01:16PM 47.3808 -119.5542 92° East 500 575 37,000 120 Climbing Seattle Center
01:17PM 47.3769 -119.3472 86° East 504 580 37,000  Level Seattle Center
01:18PM 47.3869 -119.1022 87° East 501 577 37,000  Level Seattle Center
01:19PM 47.3939 -118.8981 87° East 501 577 37,000  Level Seattle Center
01:20PM 47.4003 -118.6958 88° East 498 573 37,000  Level Seattle Center
01:21PM 47.4058 -118.4931 87° East 498 573 37,000  Level Seattle Center
01:22PM 47.4125 -118.2908 88° East 497 572 37,000  Level Seattle Center
01:23PM 47.4172 -118.0869 88° East 497 572 37,000  Level Seattle Center
01:24PM 47.4231 -117.8806 88° East 500 575 37,000  Level Seattle Center
01:25PM 47.4281 -117.6767 88° East 503 579 37,000  Level Seattle Center
01:26PM 47.4328 -117.4717 89° East 504 580 37,000  Level Seattle Center
01:27PM 47.4361 -117.2228 88° East 506 582 37,000  Level Seattle Center
01:28PM 47.4417 -117.0219 88° East 509 586 37,000  Level Seattle Center
01:29PM 47.4453 -116.8186 89° East 508 585 37,000  Level Seattle Center
01:30PM 47.4481 -116.6122 89° East 508 585 37,000  Level Seattle Center
01:31PM 47.4503 -116.4019 89° East 510 587 37,000  Level Seattle Center
01:32PM 47.4528 -116.1967 89° East 508 585 37,000  Level Seattle Center
01:33PM 47.4542 -115.9472 89° East 508 585 37,000  Level Seattle Center
01:34PM 47.4556 -115.7344 91° East 511 588 37,000  Level Seattle Center
01:35PM 47.4539 -115.5461 94° East 510 587 37,000  Level Salt Lake Center
01:36PM 47.4442 -115.3356 94° East 509 586 37,000  Level Salt Lake Center
01:37PM 47.4342 -115.1317 94° East 509 586 37,000  Level Salt Lake Center
01:38PM 47.4250 -114.9197 94° East 516 594 37,000 180 Level Salt Lake Center
01:39PM 47.4153 -114.7069 94° East 522 601 37,400 780 Climbing Salt Lake Center
01:40PM 47.4042 -114.4942 94° East 524 603 38,600 780 Climbing Salt Lake Center
01:41PM 47.3919 -114.2408 95° East 522 601 39,000 180 Climbing Salt Lake Center
01:42PM 47.3797 -114.0303 95° East 521 600 39,000  Level Salt Lake Center
01:43PM 47.3681 -113.8192 95° East 522 601 39,000  Level Salt Lake Center
01:44PM 47.3556 -113.6072 95° East 522 601 39,000  Level Salt Lake Center
01:45PM 47.3431 -113.3956 95° East 522 601 39,000  Level Salt Lake Center
01:46PM 47.3269 -113.1350 95° East 525 604 39,000  Level Salt Lake Center
01:47PM 47.3131 -112.9225 94° East 527 606 39,000  Level Salt Lake Center
01:48PM 47.3017 -112.7047 96° East 529 609 39,000  Level Salt Lake Center
01:49PM 47.2869 -112.4947 96° East 529 609 39,000  Level Salt Lake Center
01:50PM 47.2719 -112.2811 96° East 528 608 39,000  Level Salt Lake Center
01:51PM 47.2569 -112.0694 96° East 525 604 39,000  Level Salt Lake Center
01:52PM 47.2383 -111.8142 96° East 526 605 39,000  Level Salt Lake Center
01:53PM 47.2228 -111.6058 96° East 523 602 39,000  Level Salt Lake Center
01:54PM 47.2067 -111.3953 96° East 523 602 39,000  Level Salt Lake Center
01:55PM 47.1903 -111.1839 96° East 525 604 39,000  Level Salt Lake Center
01:56PM 47.1742 -110.9775 97° East 520 598 39,000  Level Salt Lake Center
01:58PM 47.1528 -110.7269 97° East 520 598 39,000  Level Salt Lake Center
01:59PM 47.1344 -110.5122 97° East 520 598 39,000  Level Salt Lake Center
02:00PM 47.1175 -110.3056 97° East 524 603 39,000  Level Salt Lake Center
02:01PM 47.0989 -110.0919 97° East 527 606 39,000  Level Salt Lake Center
02:02PM 47.0808 -109.8739 97° East 534 615 39,000  Level Salt Lake Center
02:03PM 47.0583 -109.6139 91° East 539 620 39,000  Level Salt Lake Center
02:04PM 47.0558 -109.3928 90° East 546 628 39,000  Level Salt Lake Center
02:05PM 47.0550 -109.1700 91° East 551 634 39,000  Level Salt Lake Center
02:06PM 47.0531 -108.9383 90° East 550 633 39,000  Level Salt Lake Center
02:07PM 47.0517 -108.6886 91° East 548 631 39,000  Level Salt Lake Center
02:08PM 47.0500 -108.4742 91° East 549 632 39,000  Level Salt Lake Center
02:09PM 47.0483 -108.2589 91° East 550 633 39,000  Level Salt Lake Center
02:10PM 47.0458 -108.0050 91° East 553 636 39,000  Level Salt Lake Center
02:11PM 47.0425 -107.7906 91° East 551 634 39,000  Level Salt Lake Center
02:12PM 47.0394 -107.5414 92° East 548 631 39,000  Level Salt Lake Center
02:13PM 47.0350 -107.3272 91° East 548 631 39,000  Level Salt Lake Center
02:14PM 47.0306 -107.0769 92° East 550 633 39,000  Level Salt Lake Center
02:15PM 47.0256 -106.8608 92° East 552 635 39,000  Level Salt Lake Center
02:16PM 47.0206 -106.6439 92° East 554 638 39,000  Level Salt Lake Center
02:17PM 47.0144 -106.3925 92° East 554 638 39,000  Level Salt Lake Center
02:18PM 47.0089 -106.1889 92° East 553 636 39,000  Level Salt Lake Center
02:19PM 47.0014 -105.9186 93° East 555 639 39,000  Level Salt Lake Center
02:20PM 46.9942 -105.6942 92° East 556 640 39,000  Level Salt Lake Center
02:21PM 46.9881 -105.4714 93° East 553 636 39,000  Level Salt Lake Center
02:22PM 46.9797 -105.2419 93° East 553 636 39,000  Level Salt Lake Center
02:23PM 46.9714 -105.0247 93° East 552 635 39,000  Level Salt Lake Center
02:24PM 46.9622 -104.8022 94° East 552 635 39,000  Level Salt Lake Center
02:25PM 46.9492 -104.5347 94° East 552 635 39,000  Level Salt Lake Center
02:26PM 46.9389 -104.3122 94° East 552 635 39,000  Level Salt Lake Center
02:27PM 46.9286 -104.0936 94° East 550 633 39,000  Level Salt Lake Center
02:28PM 46.9178 -103.8758 94° East 546 628 39,000  Level Salt Lake Center
02:30PM 46.9061 -103.6558 94° East 545 627 39,000  Level Salt Lake Center
02:31PM 46.8944 -103.4369 94° East 546 628 39,000  Level Salt Lake Center
02:32PM 46.8800 -103.1719 94° East 547 629 39,000  Level Salt Lake Center
02:33PM 46.8686 -102.9522 99° East 547 629 39,000  Level Salt Lake Center
02:34PM 46.8453 -102.7375 112° Southeast 545 627 39,000  Level Minneapolis Center
02:35PM 46.7903 -102.5364 98° East 531 611 39,000  Level Minneapolis Center
02:35PM 46.7900 -102.5336 114° Southeast 545 627 39,000  Level Salt Lake Center
02:36PM 46.7306 -102.3408 116° Southeast 531 611 39,000  Level Minneapolis Center
02:37PM 46.6661 -102.1481 114° Southeast 531 611 39,000  Level Minneapolis Center
02:38PM 46.6058 -101.9503 114° Southeast 536 617 39,000  Level Minneapolis Center
02:39PM 46.5450 -101.7531 113° Southeast 536 617 39,000  Level Minneapolis Center
02:40PM 46.4897 -101.5633 115° Southeast 531 611 39,000  Level Minneapolis Center
02:41PM 46.4283 -101.3697 115° Southeast 531 611 39,000  Level Minneapolis Center
02:43PM 46.3003 -100.9778 114° Southeast 531 611 39,000  Level Minneapolis Center
02:44PM 46.2403 -100.7800 116° Southeast 531 611 39,000  Level Minneapolis Center
02:45PM 46.1753 -100.5881 115° Southeast 531 611 39,000  Level Minneapolis Center
02:46PM 46.1122 -100.3936 115° Southeast 531 611 39,000  Level Minneapolis Center
02:47PM 46.0486 -100.2000 116° Southeast 536 617 39,000  Level Minneapolis Center
02:49PM 45.9189 -99.8133 115° Southeast 536 617 39,000  Level Minneapolis Center
02:50PM 45.8561 -99.6239 116° Southeast 536 617 39,000  Level Minneapolis Center
02:51PM 45.7894 -99.4286 116° Southeast 531 611 39,000  Level Minneapolis Center
02:52PM 45.7244 -99.2342 117° Southeast 536 617 39,000  Level Minneapolis Center
02:53PM 45.6589 -99.0489 116° Southeast 531 611 39,000  Level Minneapolis Center
02:54PM 45.5911 -98.8547 117° Southeast 536 617 39,000  Level Minneapolis Center
02:55PM 45.5303 -98.6858 116° Southeast 536 617 39,000  Level Minneapolis Center
02:56PM 45.4642 -98.4900 108° East 536 617 39,000  Level Minneapolis Center
02:57PM 45.4167 -98.2872 94° East 536 617 39,000  Level Minneapolis Center
02:58PM 45.4056 -98.0525 92° East 527 606 39,000  Level Minneapolis Center
02:59PM 45.3994 -97.8392 94° East 527 606 39,000  Level Minneapolis Center
03:00PM 45.3892 -97.6222 93° East 537 618 39,000  Level Minneapolis Center
03:01PM 45.3822 -97.4089 93° East 548 631 39,000  Level Minneapolis Center
03:02PM 45.3750 -97.1894 94° East 554 638 39,000  Level Minneapolis Center
03:03PM 45.3653 -96.9761 94° East 548 631 39,000  Level Minneapolis Center
03:04PM 45.3550 -96.7625 94° East 548 631 39,000  Level Minneapolis Center
03:05PM 45.3447 -96.5433 93° East 548 631 39,000  Level Minneapolis Center
03:06PM 45.3358 -96.3303 94° East 548 631 39,000  Level Minneapolis Center
03:07PM 45.3244 -96.1142 94° East 543 625 39,000  Level Minneapolis Center
03:08PM 45.3125 -95.9008 94° East 543 625 39,000  Level Minneapolis Center
03:09PM 45.3019 -95.7086 95° East 543 625 39,000  Level Minneapolis Center
03:10PM 45.2894 -95.4925 95° East 543 625 39,000  Level Minneapolis Center
03:11PM 45.2767 -95.2739 95° East 548 631 39,000  Level Minneapolis Center
03:12PM 45.2633 -95.0581 94° East 548 631 39,000  Level Minneapolis Center
03:13PM 45.2514 -94.8425 97° East 548 631 39,000  Level Minneapolis Center
03:14PM 45.2314 -94.6092 95° East 556 640 39,000  Level Minneapolis Center
03:15PM 45.2186 -94.3939 96° East 543 625 39,000  Level Minneapolis Center
03:16PM 45.2036 -94.1783 96° East 548 631 39,000  Level Minneapolis Center
03:17PM 45.1883 -93.9603 95° East 554 638 39,000  Level Minneapolis Center
03:18PM 45.1744 -93.7453 95° East 554 638 39,000  Level Minneapolis Center
03:19PM 45.1603 -93.5303 99° East 554 638 39,000  Level Minneapolis Center
03:20PM 45.1372 -93.3361 108° East 554 638 39,000  Level Minneapolis Center
03:21PM 45.0889 -93.1272 110° East 554 638 39,000  Level Minneapolis Center
03:22PM 45.0361 -92.9192 109° East 561 646 39,000  Level Minneapolis Center
03:23PM 44.9850 -92.7111 110° East 561 646 39,000  Level Minneapolis Center
03:24PM 44.9272 -92.4892 110° East 561 646 39,000  Level Minneapolis Center
03:25PM 44.8753 -92.2850 110° East 556 640 39,000  Level Minneapolis Center
03:26PM 44.8231 -92.0811 110° East 544 626 39,000  Level Minneapolis Center
03:27PM 44.7703 -91.8806 109° East 544 626 39,000  Level Minneapolis Center
03:28PM 44.7194 -91.6775 111° Southeast 544 626 39,000  Level Minneapolis Center
03:29PM 44.6642 -91.4750 110° East 544 626 39,000  Level Minneapolis Center
03:30PM 44.6125 -91.2756 110° East 544 626 39,000  Level Minneapolis Center
03:31PM 44.5650 -91.0936 115° Southeast 544 626 39,000  Level Minneapolis Center
03:32PM 44.5028 -90.9042 109° East 544 626 39,000  Level Minneapolis Center
03:33PM 44.4522 -90.7028 111° Southeast 544 626 39,000  Level Minneapolis Center
03:34PM 44.3972 -90.5050 114° Southeast 544 626 39,000  Level Minneapolis Center
03:36PM 44.2589 -90.0800 130° Southeast 555 639 39,000  Level Chicago Center
03:37PM 44.1639 -89.9225 131° Southeast 549 632 39,000  Level Chicago Center
03:38PM 44.0647 -89.7628 132° Southeast 543 625 39,000  Level Chicago Center
03:39PM 43.9650 -89.6064 131° Southeast 538 619 39,000  Level Chicago Center
03:40PM 43.8653 -89.4478 131° Southeast 543 625 39,000  Level Chicago Center
03:41PM 43.7675 -89.2922 131° Southeast 543 625 39,000  Level Chicago Center
03:42PM 43.6694 -89.1375 132° Southeast 543 625 39,000  Level Chicago Center
03:43PM 43.5711 -88.9858 131° Southeast 538 619 39,000  Level Chicago Center
03:44PM 43.4725 -88.8319 134° Southeast 538 619 39,000  Level Chicago Center
03:45PM 43.3675 -88.6817 131° Southeast 538 619 39,000  Level Chicago Center
03:46PM 43.2667 -88.5231 132° Southeast 551 634 39,000  Level Chicago Center
03:47PM 43.1675 -88.3736 170° South 540 621 39,000  Level Chicago Center
03:48PM 43.0339 -88.3417 206° Southwest 492 566 39,000  Level Chicago Center
03:49PM 42.9136 -88.4228 206° Southwest 501 577 39,000  Level Chicago Center
03:50PM 42.7975 -88.5011 207° Southwest 482 555 39,000  Level Chicago Center
03:51PM 42.6814 -88.5817 207° Southwest 468 539 39,000 300 Level Chicago Center
03:52PM 42.5631 -88.6619 207° Southwest 473 544 39,600 480 Climbing Chicago Center
03:53PM 42.4447 -88.7422 206° Southwest 473 544 40,000 180 Climbing Chicago Center
03:54PM 42.3431 -88.8106 206° Southwest 473 544 40,000  Level Chicago Center
03:55PM 42.2142 -88.8958 206° Southwest 467 537 40,000  Level Chicago Center
03:56PM 42.0936 -88.9750 209° Southwest 472 543 40,000  Level Chicago Center
03:57PM 41.9667 -89.0678 206° Southwest 472 543 40,000  Level Chicago Center
03:58PM 41.8500 -89.1436 206° Southwest 472 543 40,000  Level Chicago Center
03:59PM 41.7292 -89.2219 206° Southwest 472 543 40,000  Level Chicago Center
04:00PM 41.6125 -89.2972 206° Southwest 472 543 40,000  Level Chicago Center
04:01PM 41.4981 -89.3722 205° Southwest 467 537 40,000  Level Chicago Center
04:02PM 41.3792 -89.4467 206° Southwest 467 537 40,000  Level Chicago Center
04:03PM 41.2622 -89.5211 217° Southwest 467 537 40,000  Level Chicago Center
04:04PM 41.1619 -89.6231 260° West 442 509 40,000  Level Chicago Center
04:05PM 41.1406 -89.7828 263° West 469 540 40,000  Level Chicago Center
04:06PM 41.1253 -89.9397 261° West 461 531 40,000  Level Chicago Center
04:07PM 41.1056 -90.1022 262° West 450 518 40,000  Level Chicago Center
04:08PM 41.0878 -90.2592 260° West 444 511 40,000  Level Chicago Center
04:09PM 41.0678 -90.4158 261° West 444 511 40,000  Level Chicago Center
04:10PM 41.0494 -90.5725 261° West 444 511 40,000  Level Chicago Center
04:11PM 41.0333 -90.7125 261° West 444 511 40,000  Level Chicago Center
04:12PM 41.0147 -90.8661 261° West 444 511 40,000  Level Chicago Center
04:13PM 40.9958 -91.0197 260° West 438 504 40,000  Level Chicago Center
04:14PM 40.9747 -91.1706 261° West 432 497 40,000  Level Chicago Center
04:15PM 40.9553 -91.3378 261° West 426 490 40,000  Level Chicago Center
04:16PM 40.9383 -91.4775 261° West 411 473 40,000  Level Chicago Center
04:17PM 40.9208 -91.6253 261° West 411 473 40,000  Level Chicago Center
04:18PM 40.9031 -91.7731 260° West 411 473 40,000  Level Chicago Center
04:19PM 40.8833 -91.9178 261° West 411 473 40,000  Level Chicago Center
04:20PM 40.8653 -92.0656 260° West 411 473 40,000  Level Chicago Center
04:21PM 40.8450 -92.2156 260° West 411 473 40,000  Level Chicago Center
04:22PM 40.8244 -92.3628 261° West 411 473 40,000  Level Chicago Center
04:23PM 40.8058 -92.5156 260° West 411 473 40,000  Level Chicago Center
04:24PM 40.7847 -92.6683 260° West 417 480 40,000  Level Chicago Center
04:25PM 40.7658 -92.8100 260° West 433 498 40,000  Level Chicago Center
04:26PM 40.7444 -92.9622 259° West 433 498 40,000  Level Chicago Center
04:27PM 40.7206 -93.1200 259° West 433 498 40,000  Level Chicago Center
04:28PM 40.7028 -93.2419 259° West 432 497 40,000  Level Minneapolis Center
04:29PM 40.6800 -93.3978 259° West 432 497 40,000  Level Minneapolis Center
04:30PM 40.6572 -93.5508 259° West 432 497 40,000  Level Minneapolis Center
04:31PM 40.6339 -93.7089 259° West 432 497 40,000  Level Minneapolis Center
04:32PM 40.6106 -93.8644 259° West 432 497 40,000  Level Minneapolis Center
04:33PM 40.5869 -94.0197 258° West 432 497 40,000  Level Minneapolis Center
04:34PM 40.5611 -94.1747 257° West 432 497 40,000  Level Minneapolis Center
04:35PM 40.5331 -94.3325 256° West 432 497 40,000  Level Minneapolis Center
04:36PM 40.5044 -94.4847 260° West 437 503 40,000  Level Minneapolis Center
04:37PM 40.4822 -94.6450 262° West 425 489 40,000  Level Minneapolis Center
04:38PM 40.4658 -94.7889 263° West 419 482 40,000  Level Minneapolis Center
04:39PM 40.4514 -94.9383 266° West 413 475 40,000  Level Minneapolis Center
04:40PM 40.4431 -95.0822 274° West 408 470 40,000  Level Minneapolis Center
04:41PM 40.4511 -95.2267 275° West 402 463 40,000  Level Minneapolis Center
04:42PM 40.4611 -95.3742 275° West 402 463 40,000  Level Minneapolis Center
04:43PM 40.4708 -95.5214 277° West 407 468 40,000  Level Minneapolis Center
04:44PM 40.4847 -95.6661 276° West 407 468 40,000  Level Minneapolis Center
04:45PM 40.4961 -95.8108 277° West 407 468 40,000  Level Minneapolis Center
04:46PM 40.5094 -95.9586 276° West 407 468 40,000  Level Minneapolis Center
04:47PM 40.5206 -96.1089 275° West 407 468 40,000  Level Minneapolis Center
04:48PM 40.5294 -96.2483 258° West 400 460 40,000  Level Minneapolis Center
04:49PM 40.5047 -96.3969 254° West 400 460 40,000  Level Minneapolis Center
04:50PM 40.4736 -96.5400 255° West 407 468 40,000  Level Minneapolis Center
04:51PM 40.4444 -96.6828 255° West 413 475 40,000  Level Minneapolis Center
04:52PM 40.4153 -96.8256 248° West 413 475 40,000  Level Minneapolis Center
04:53PM 40.3733 -96.9619 247° West 413 475 40,000  Level Minneapolis Center
04:54PM 40.3294 -97.0981 247° West 413 475 40,000  Level Minneapolis Center
04:55PM 40.2853 -97.2367 247° West 413 475 40,000  Level Minneapolis Center
04:56PM 40.2408 -97.3725 247° West 413 475 40,000  Level Minneapolis Center
04:57PM 40.1961 -97.5106 246° West 413 475 40,000  Level Minneapolis Center
04:58PM 40.1469 -97.6567 247° West 425 489 40,000  Level Minneapolis Center
04:59PM 40.0997 -97.7997 227° Southwest 430 495 40,000  Level Minneapolis Center
05:00PM 40.0181 -97.9158 214° Southwest 430 495 40,000  Level Minneapolis Center
05:01PM 39.9164 -98.0061 217° Southwest 436 502 40,000  Level Minneapolis Center
05:02PM 39.8167 -98.1042 216° Southwest 443 510 40,000  Level Minneapolis Center
05:03PM 39.7147 -98.2017 216° Southwest 453 521 40,000  Level Minneapolis Center
05:04PM 39.6147 -98.2964 216° Southwest 458 527 40,000  Level Minneapolis Center
05:05PM 39.5125 -98.3936 219° Southwest 458 527 40,000  Level Minneapolis Center
05:06PM 39.4144 -98.4958 244° Southwest 458 527 40,000  Level Minneapolis Center
05:07PM 39.3597 -98.6422 246° West 440 506 40,000  Level Denver Center
05:08PM 39.3106 -98.7819 247° West 431 496 40,000  Level Denver Center
05:09PM 39.2619 -98.9269 247° West 436 502 40,000  Level Denver Center
05:10PM 39.2167 -99.0633 245° Southwest 431 496 40,000  Level Denver Center
05:11PM 39.1633 -99.2111 246° West 438 504 40,000  Level Denver Center
05:12PM 39.1175 -99.3419 246° West 447 514 40,000  Level Denver Center
05:13PM 39.0697 -99.4806 245° Southwest 442 509 40,000  Level Denver Center
05:14PM 39.0122 -99.6361 245° Southwest 442 509 40,000  Level Denver Center
05:15PM 38.9586 -99.7858 245° Southwest 448 516 40,000  Level Denver Center
05:16PM 38.9119 -99.9156 250° West 448 516 40,000  Level Denver Center
05:17PM 38.8700 -100.0636 262° West 443 510 40,000  Level Denver Center
05:18PM 38.8503 -100.2336 262° West 443 510 40,000  Level Denver Center
05:19PM 38.8336 -100.3872 261° West 443 510 40,000  Level Denver Center
05:20PM 38.8178 -100.5219 261° West 443 510 40,000  Level Denver Center
05:21PM 38.7972 -100.6942 262° West 443 510 40,000  Level Denver Center
05:22PM 38.7800 -100.8500 261° West 451 519 40,000  Level Denver Center
05:23PM 38.7603 -101.0008 261° West 451 519 40,000  Level Denver Center
05:24PM 38.7439 -101.1406 262° West 446 513 40,000  Level Denver Center
05:25PM 38.7244 -101.3072 260° West 446 513 40,000  Level Denver Center
05:26PM 38.7042 -101.4578 261° West 436 502 40,000  Level Denver Center
05:27PM 38.6889 -101.5867 261° West 421 484 40,000  Level Denver Center
05:28PM 38.6700 -101.7369 260° West 421 484 40,000  Level Denver Center
05:29PM 38.6494 -101.8925 260° West 421 484 40,000  Level Denver Center
05:30PM 38.6281 -102.0400 262° West 414 476 40,000  Level Denver Center
05:31PM 38.6142 -102.1658 259° West 408 470 40,000  Level Denver Center
05:32PM 38.5908 -102.3239 261° West 413 475 40,000  Level Denver Center
05:33PM 38.5728 -102.4631 261° West 407 468 40,000  Level Denver Center
05:34PM 38.5547 -102.6022 261° West 407 468 40,000  Level Denver Center
05:35PM 38.5381 -102.7306 260° West 407 468 40,000  Level Denver Center
05:36PM 38.5178 -102.8831 259° West 407 468 40,000  Level Denver Center
05:37PM 38.4969 -103.0194 260° West 407 468 40,000  Level Denver Center
05:38PM 38.4800 -103.1447 260° West 407 468 40,000  Level Denver Center
05:39PM 38.4608 -103.2836 259° West 407 468 40,000  Level Denver Center
05:40PM 38.4381 -103.4383 261° West 407 468 40,000  Level Denver Center
05:41PM 38.4208 -103.5794 261° West 413 475 40,000  Level Denver Center
05:42PM 38.4017 -103.7261 259° West 413 475 40,000  Level Denver Center
05:43PM 38.3817 -103.8592 259° West 413 475 40,000  Level Denver Center
05:44PM 38.3600 -104.0058 257° West 419 482 40,000  Level Denver Center
05:45PM 38.3319 -104.1653 261° West 425 489 40,000  Level Denver Center
05:46PM 38.3142 -104.3142 256° West 432 497 40,000  Level Denver Center
05:47PM 38.2872 -104.4472 244° Southwest 427 491 40,000  Level Denver Center
05:48PM 38.2314 -104.5942 243° Southwest 422 486 40,000  Level Denver Center
05:49PM 38.1772 -104.7275 243° Southwest 422 486 40,000  Level Denver Center
05:50PM 38.1250 -104.8583 243° Southwest 422 486 40,000  Level Denver Center
05:51PM 38.0786 -104.9753 242° Southwest 417 480 40,000  Level Denver Center
05:52PM 38.0200 -105.1161 243° Southwest 417 480 40,000  Level Denver Center
05:53PM 37.9672 -105.2489 243° Southwest 417 480 40,000  Level Denver Center
05:54PM 37.9206 -105.3628 243° Southwest 412 474 40,000  Level Denver Center
05:55PM 37.8675 -105.4950 242° Southwest 417 480 40,000  Level Denver Center
05:56PM 37.8081 -105.6350 242° Southwest 417 480 40,000  Level Denver Center
05:57PM 37.7547 -105.7617 244° Southwest 410 472 40,000  Level Denver Center
05:58PM 37.7094 -105.8775 242° Southwest 410 472 40,000  Level Denver Center
05:59PM 37.6581 -106.0011 241° Southwest 410 472 40,000  Level Denver Center
06:00PM 37.5981 -106.1378 241° Southwest 410 472 40,000  Level Denver Center
06:01PM 37.5442 -106.2608 243° Southwest 410 472 40,000  Level Denver Center
06:02PM 37.4922 -106.3867 242° Southwest 410 472 40,000  Level Denver Center
06:03PM 37.4400 -106.5122 240° Southwest 410 472 40,000  Level Denver Center
06:04PM 37.3878 -106.6244 242° Southwest 410 472 40,000  Level Denver Center
06:05PM 37.3292 -106.7625 242° Southwest 410 472 40,000  Level Denver Center
06:06PM 37.2767 -106.8875 242° Southwest 410 472 40,000  Level Denver Center
06:07PM 37.2306 -106.9967 241° Southwest 404 465 40,000  Level Denver Center
06:08PM 37.1778 -107.1161 242° Southwest 404 465 40,000  Level Denver Center
06:09PM 37.1206 -107.2508 242° Southwest 398 458 40,000  Level Denver Center
06:10PM 37.0697 -107.3728 241° Southwest 398 458 40,000  Level Denver Center
06:11PM 37.0208 -107.4836 241° Southwest 403 464 40,000  Level Denver Center
06:12PM 36.9675 -107.6050 242° Southwest 403 464 40,000  Level Denver Center
06:13PM 36.9078 -107.7442 232° Southwest 409 471 40,000  Level Denver Center
06:14PM 36.8397 -107.8544 189° South 410 472 40,000  Level Denver Center
06:15PM 36.7394 -107.8733 157° South 404 465 40,000  Level Denver Center
06:16PM 36.6319 -107.8169 141° Southeast 404 465 40,000  Level Denver Center
06:17PM 36.5206 -107.7067 141° Southeast 451 519 40,000  Level Denver Center
06:19PM 36.2917 -107.4797 140° Southeast 466 536 40,000  Level Albuquerque Center
06:20PM 36.1958 -107.3817 140° Southeast 466 536 40,000  Level Albuquerque Center
06:21PM 36.1061 -107.2892 141° Southeast 459 528 40,000  Level Albuquerque Center
06:22PM 35.9994 -107.1842 141° Southeast 459 528 40,100 480 Climbing Albuquerque Center
06:23PM 35.8992 -107.0842 141° Southeast 459 528 41,000 420 Climbing Albuquerque Center
06:24PM 35.8008 -106.9872 141° Southeast 452 520 41,000  Level Albuquerque Center
06:25PM 35.7150 -106.9008 142° Southeast 452 520 41,000  Level Albuquerque Center
06:26PM 35.6039 -106.7942 140° Southeast 452 520 41,000  Level Albuquerque Center
06:27PM 35.5056 -106.6928 142° Southeast 451 519 41,000  Level Albuquerque Center
06:28PM 35.4067 -106.5967 142° Southeast 451 519 41,000  Level Albuquerque Center
06:29PM 35.3081 -106.5008 141° Southeast 456 525 41,000  Level Albuquerque Center
06:30PM 35.2072 -106.4003 141° Southeast 457 526 41,000  Level Albuquerque Center
06:31PM 35.1061 -106.3000 142° Southeast 465 535 41,000  Level Albuquerque Center
06:32PM 35.0008 -106.2000 172° South 476 548 41,000  Level Albuquerque Center
06:33PM 34.8839 -106.1811 218° Southwest 418 481 41,000  Level Albuquerque Center
06:34PM 34.7908 -106.2711 225° Southwest 390 449 41,000 -240 Level Albuquerque Center
06:35PM 34.7061 -106.3733 228° Southwest 409 471 40,600 -540 Descending Albuquerque Center
06:36PM 34.6297 -106.4753 224° Southwest 415 478 40,000 -300 Descending Albuquerque Center
06:37PM 34.5489 -106.5694 226° Southwest 415 478 40,000  Level Albuquerque Center
06:38PM 34.4703 -106.6683 224° Southwest 409 471 40,000  Level Albuquerque Center
06:39PM 34.3997 -106.7519 217° Southwest 402 463 40,000  Level Albuquerque Center
06:40PM 34.3022 -106.8408 199° South 400 460 40,000  Level Albuquerque Center
06:41PM 34.1939 -106.8867 201° Southwest 400 460 40,000  Level Albuquerque Center
06:42PM 34.0875 -106.9350 199° South 407 468 40,000  Level Albuquerque Center
06:43PM 33.9814 -106.9781 200° South 413 475 40,000  Level Albuquerque Center
06:44PM 33.8731 -107.0261 199° South 413 475 40,000  Level Albuquerque Center
06:45PM 33.7689 -107.0689 200° South 407 468 40,000  Level Albuquerque Center
06:46PM 33.6603 -107.1167 200° South 407 468 40,000  Level Albuquerque Center
06:47PM 33.5519 -107.1642 201° Southwest 407 468 40,000  Level Albuquerque Center
06:48PM 33.4436 -107.2142 200° South 412 474 40,000  Level Albuquerque Center
06:49PM 33.3331 -107.2617 199° South 412 474 40,000  Level Albuquerque Center
06:50PM 33.2267 -107.3067 196° South 412 474 40,000  Level Albuquerque Center
06:51PM 33.1139 -107.3464 197° South 412 474 40,000  Level Albuquerque Center
06:52PM 33.0139 -107.3833 197° South 418 481 40,000  Level Albuquerque Center
06:53PM 32.9053 -107.4231 198° South 418 481 40,000  Level Albuquerque Center
06:54PM 32.7969 -107.4647 197° South 418 481 40,000  Level Albuquerque Center
06:55PM 32.6883 -107.5042 197° South 418 481 40,000  Level Albuquerque Center
06:56PM 32.5800 -107.5433 198° South 418 481 40,000  Level Albuquerque Center
06:57PM 32.4714 -107.5850 197° South 418 481 40,000  Level Albuquerque Center
06:58PM 32.3628 -107.6239 195° South 418 481 40,000  Level Albuquerque Center
06:59PM 32.2500 -107.6606 197° South 418 481 40,000  Level Albuquerque Center
07:00PM 32.1394 -107.7017 197° South 418 481 40,000  Level Albuquerque Center
07:01PM 32.0289 -107.7428 214° Southwest 418 481 40,000  Level Albuquerque Center
07:02PM 31.9347 -107.8183 268° West 418 481 40,000  Level Albuquerque Center
07:03PM 31.9300 -107.9575 274° West 372 428 40,000  Level Albuquerque Center
07:04PM 31.9394 -108.1019 275° West 397 457 40,000  Level Albuquerque Center
07:05PM 31.9492 -108.2439 273° West 442 509 40,000  Level Albuquerque Center
07:06PM 31.9561 -108.3858 275° West 447 514 40,000  Level Albuquerque Center
07:07PM 31.9675 -108.5303 273° West 447 514 40,000  Level Albuquerque Center
07:08PM 31.9742 -108.6722 274° West 441 507 40,000  Level Albuquerque Center
07:09PM 31.9831 -108.8142 273° West 441 507 40,000  Level Albuquerque Center
07:10PM 31.9897 -108.9561 274° West 441 507 40,000  Level Albuquerque Center
07:11PM 31.9981 -109.0958 273° West 441 507 40,000  Level Albuquerque Center
07:12PM 32.0044 -109.2378 275° West 441 507 40,000  Level Albuquerque Center
07:13PM 32.0147 -109.3750 273° West 441 507 40,000  Level Albuquerque Center
07:14PM 32.0206 -109.5147 274° West 436 502 40,000  Level Albuquerque Center
07:15PM 32.0283 -109.6519 277° West 430 495 40,000  Level Albuquerque Center
07:16PM 32.0425 -109.7869 290° West 423 487 40,000  Level Albuquerque Center
07:17PM 32.0833 -109.9203 292° West 423 487 40,000  Level Albuquerque Center
07:18PM 32.1286 -110.0517 292° West 429 494 40,000  Level Albuquerque Center
07:19PM 32.1733 -110.1831 290° West 434 499 40,000  Level Albuquerque Center
07:20PM 32.2161 -110.3192 295° West 439 505 40,000  Level Albuquerque Center
07:21PM 32.2650 -110.4436 290° West 428 493 40,000  Level Albuquerque Center
07:22PM 32.3072 -110.5825 291° West 439 505 40,000  Level Albuquerque Center
07:23PM 32.3517 -110.7169 291° West 439 505 40,000  Level Albuquerque Center
07:24PM 32.3956 -110.8539 290° West 444 511 40,000  Level Albuquerque Center
07:25PM 32.4375 -110.9908 290° West 444 511 40,000  Level Albuquerque Center
07:26PM 32.4792 -111.1278 291° West 444 511 40,000  Level Albuquerque Center
07:27PM 32.5286 -111.2778 291° West 444 511 40,000  Level Albuquerque Center
07:28PM 32.5719 -111.4150 290° West 449 517 40,000  Level Albuquerque Center
07:29PM 32.6131 -111.5525 290° West 449 517 40,000  Level Albuquerque Center
07:30PM 32.6542 -111.6878 290° West 449 517 40,000  Level Albuquerque Center
07:31PM 32.6969 -111.8256 291° West 449 517 40,000  Level Albuquerque Center
07:32PM 32.7400 -111.9611 289° West 444 511 40,000  Level Albuquerque Center
07:33PM 32.7786 -112.0939 290° West 437 503 40,000  Level Albuquerque Center
07:34PM 32.8136 -112.2094 291° West 426 490 40,000  Level Albuquerque Center
07:35PM 32.8597 -112.3531 289° West 426 490 40,000  Level Albuquerque Center
07:36PM 32.9000 -112.4889 290° West 426 490 40,000  Level Albuquerque Center
07:37PM 32.9400 -112.6222 273° West 426 490 40,000  Level Albuquerque Center
07:38PM 32.9467 -112.7539 262° West 419 482 40,000  Level Albuquerque Center
07:39PM 32.9303 -112.8864 260° West 408 470 40,000  Level Albuquerque Center
07:40PM 32.9117 -113.0161 260° West 403 464 40,000  Level Albuquerque Center
07:41PM 32.8928 -113.1483 261° West 409 471 40,000  Level Albuquerque Center
07:42PM 32.8761 -113.2783 258° West 409 471 40,000  Level Albuquerque Center
07:44PM 32.8308 -113.5283 263° West 413 475 40,000 -60 Level Los Angeles Center
07:45PM 32.8169 -113.6572 259° West 413 475 39,900  Descending Los Angeles Center
07:46PM 32.7964 -113.7864 261° West 408 470 40,000  Climbing Los Angeles Center
07:47PM 32.7800 -113.9153 265° West 408 470 39,900 -60 Descending Los Angeles Center
07:48PM 32.7700 -114.0489 270° West 408 470 39,900  Level Los Angeles Center
07:49PM 32.7700 -114.1847 269° West 408 470 39,900  Level Los Angeles Center
07:50PM 32.7678 -114.3156 269° West 408 470 39,900  Level Los Angeles Center
07:51PM 32.7656 -114.4492 270° West 402 463 40,000  Climbing Los Angeles Center
07:52PM 32.7653 -114.5850 269° West 402 463 39,900 -60 Descending Los Angeles Center
07:53PM 32.7628 -114.7283 269° West 402 463 39,900  Level Los Angeles Center
07:54PM 32.7600 -114.8642 269° West 402 463 39,900  Level Los Angeles Center
07:55PM 32.7572 -114.9950 270° West 402 463 40,000  Climbing Los Angeles Center
07:56PM 32.7564 -115.1308 267° West 402 463 39,900  Descending Los Angeles Center
07:57PM 32.7511 -115.2617 269° West 402 463 40,000  Climbing Los Angeles Center
07:58PM 32.7497 -115.3975 268° West 407 468 40,000 -60 Level Los Angeles Center
07:59PM 32.7464 -115.5311 271° West 407 468 39,900  Descending Los Angeles Center
08:00PM 32.7489 -115.6692 272° West 407 468 40,000  Climbing Los Angeles Center
08:01PM 32.7536 -115.8025 272° West 407 468 40,000  Level Los Angeles Center
08:02PM 32.7581 -115.9383 271° West 407 468 40,000  Level Los Angeles Center
08:03PM 32.7603 -116.0669 271° West 401 461 40,000 -60 Level Los Angeles Center
08:04PM 32.7622 -116.1953 271° West 401 461 39,900  Descending Los Angeles Center
08:05PM 32.7642 -116.3286 271° West 401 461 40,000  Climbing Los Angeles Center
08:06PM 32.7661 -116.4669 272° West 406 467 39,900  Descending Los Angeles Center
08:07PM 32.7697 -116.6053 272° West 420 483 40,000  Climbing Los Angeles Center
08:08PM 32.7733 -116.7361 272° West 415 478 39,900  Descending Los Angeles Center
08:09PM 32.7767 -116.8697 271° West 410 472 40,000  Climbing Los Angeles Center
08:10PM 32.7781 -116.9981 272° West 404 465 39,900 -60 Descending Los Angeles Center
08:11PM 32.7811 -117.1242 289° West 398 458 39,900  Level Los Angeles Center
08:12PM 32.8117 -117.2308 335° Northwest 393 452 40,000  Climbing Los Angeles Center
08:13PM 32.9258 -117.2942 343° North 376 433 40,000  Level Los Angeles Center
08:14PM 33.0506 -117.3403 341° North 408 470 40,000  Level Los Angeles Center
08:15PM 33.1836 -117.3944 325° Northwest 447 514 40,000  Level Los Angeles Center
08:16PM 33.2786 -117.4753 309° West 431 496 40,000  Level Los Angeles Center
08:17PM 33.3506 -117.5808 310° West 402 463 40,000  Level Los Angeles Center
08:18PM 33.4203 -117.6817 311° West 402 463 40,000  Level Los Angeles Center
08:19PM 33.4939 -117.7850 309° West 402 463 40,000  Level Los Angeles Center
08:20PM 33.5636 -117.8886 309° West 402 463 40,000  Level Los Angeles Center
08:21PM 33.6308 -117.9872 310° West 402 463 40,000  Level Los Angeles Center
08:22PM 33.7044 -118.0914 308° West 402 463 40,000  Level Los Angeles Center
08:23PM 33.7675 -118.1878 309° West 402 463 40,000  Level Los Angeles Center
08:24PM 33.8367 -118.2894 310° West 402 463 40,000  Level Los Angeles Center
08:25PM 33.9139 -118.4014 300° West 423 487 40,000  Level Los Angeles Center
08:26PM 33.9681 -118.5131 298° West 423 487 40,000  Level Los Angeles Center
08:27PM 34.0261 -118.6453 299° West 402 463 40,000  Level Los Angeles Center
08:28PM 34.0719 -118.7469 297° West 391 450 40,000  Level Los Angeles Center
08:29PM 34.1214 -118.8664 298° West 391 450 40,000  Level Los Angeles Center
08:30PM 34.1731 -118.9836 297° West 391 450 40,000  Level Los Angeles Center
08:31PM 34.2225 -119.1008 297° West 391 450 40,000  Level Los Angeles Center
08:32PM 34.2717 -119.2156 297° West 391 450 40,000  Level Los Angeles Center
08:33PM 34.3228 -119.3358 297° West 391 450 40,000  Level Los Angeles Center
08:34PM 34.3719 -119.4533 297° West 391 450 40,000  Level Los Angeles Center
08:35PM 34.4228 -119.5736 297° West 391 450 40,000  Level Los Angeles Center
08:36PM 34.4756 -119.6969 304° West 396 456 40,000  Level Los Angeles Center
08:37PM 34.5389 -119.8131 319° Northwest 408 470 40,000  Level Los Angeles Center
08:38PM 34.6297 -119.9106 320° Northwest 413 475 40,000  Level Los Angeles Center
08:39PM 34.7208 -120.0031 319° Northwest 420 483 40,000 -60 Level Los Angeles Center
08:40PM 34.8156 -120.1036 317° Northwest 438 504 39,900  Descending Los Angeles Center
08:42PM 34.9972 -120.3072 318° Northwest 446 513 40,000  Climbing Oakland Center
08:43PM 35.0917 -120.4128 317° Northwest 446 513 40,000  Level Oakland Center
08:44PM 35.1839 -120.5189 317° Northwest 451 519 40,000  Level Oakland Center
08:45PM 35.2886 -120.6378 319° Northwest 451 519 40,000  Level Oakland Center
08:46PM 35.3847 -120.7419 318° Northwest 451 519 40,000  Level Oakland Center
08:47PM 35.4808 -120.8486 327° Northwest 451 519 40,000  Level Oakland Center
08:48PM 35.5914 -120.9378 350° North 464 534 40,000  Level Oakland Center
08:49PM 35.7269 -120.9683 348° North 467 537 40,000  Level Oakland Center
08:50PM 35.8647 -121.0042 349° North 484 557 40,000  Level Oakland Center
08:51PM 36.0003 -121.0353 350° North 490 564 40,000  Level Oakland Center
08:52PM 36.1358 -121.0661 350° North 490 564 40,000  Level Oakland Center
08:53PM 36.2714 -121.0972 349° North 490 564 40,000  Level Oakland Center
08:54PM 36.4047 -121.1308 349° North 490 564 40,000  Level Oakland Center
08:55PM 36.5444 -121.1647 348° North 490 564 40,000  Level Oakland Center
08:56PM 36.6781 -121.1989 349° North 490 564 40,000  Level Oakland Center
08:57PM 36.8133 -121.2303 349° North 490 564 40,000  Level Oakland Center
08:58PM 36.9447 -121.2619 350° North 484 557 40,000  Level Oakland Center
08:59PM 37.0803 -121.2911 347° North 490 564 40,000  Level Oakland Center
09:00PM 37.2033 -121.3256 350° North 490 564 40,000  Level Oakland Center
09:01PM 37.3367 -121.3550 349° North 490 564 40,000  Level Oakland Center
09:02PM 37.4722 -121.3894 349° North 495 570 40,000  Level Oakland Center
09:03PM 37.6078 -121.4219 347° North 495 570 40,000  Level Oakland Center
09:04PM 37.7389 -121.4594 349° North 482 555 40,000  Level Oakland Center
09:05PM 37.8744 -121.4917 347° North 487 560 40,000  Level Oakland Center
09:06PM 38.0056 -121.5297 348° North 487 560 40,000  Level Oakland Center
09:07PM 38.1411 -121.5650 348° North 487 560 40,000  Level Oakland Center
09:08PM 38.2764 -121.6006 348° North 487 560 40,000  Level Oakland Center
09:09PM 38.4097 -121.6361 348° North 487 560 40,000  Level Oakland Center
09:10PM 38.5450 -121.6717 349° North 487 560 40,000  Level Oakland Center
09:11PM 38.6950 -121.7106 349° North 487 560 40,000  Level Oakland Center
09:12PM 38.8283 -121.7439 349° North 487 560 40,000  Level Oakland Center
09:13PM 38.9636 -121.7772 349° North 487 560 40,000  Level Oakland Center
09:14PM 39.0967 -121.8108 348° North 487 560 40,000  Level Oakland Center
09:15PM 39.2342 -121.8500 349° North 487 560 40,000  Level Oakland Center
09:16PM 39.3672 -121.8839 350° North 487 560 40,000  Level Oakland Center
09:17PM 39.5006 -121.9153 349° North 487 560 40,000  Level Oakland Center
09:18PM 39.6317 -121.9494 349° North 479 551 40,000  Level Oakland Center
09:19PM 39.7669 -121.9836 348° North 479 551 40,000  Level Oakland Center
09:20PM 39.9000 -122.0206 349° North 485 558 40,000  Level Oakland Center
09:21PM 40.0308 -122.0525 349° North 485 558 40,000  Level Oakland Center
09:22PM 40.1683 -122.0872 347° North 485 558 40,000  Level Oakland Center
09:23PM 40.3033 -122.1275 347° North 485 558 40,000  Level Oakland Center
09:24PM 40.4342 -122.1678 348° North 485 558 40,000  Level Oakland Center
09:25PM 40.5547 -122.2025 349° North 490 564 40,000  Level Oakland Center
09:26PM 40.6925 -122.2394 348° North 490 564 40,000  Level Seattle Center
09:27PM 40.8250 -122.2753 348° North 489 563 40,000  Level Seattle Center
09:28PM 40.9833 -122.3203 348° North 486 559 40,000  Level Seattle Center
09:29PM 41.1150 -122.3569 348° North 485 558 40,000  Level Seattle Center
09:30PM 41.2469 -122.3933 348° North 484 557 40,000  Level Seattle Center
09:31PM 41.3786 -122.4300 348° North 484 557 40,000  Level Seattle Center
09:32PM 41.4967 -122.4628 348° North 484 557 40,000 -60 Level Seattle Center
09:33PM 41.6286 -122.5003 348° North 483 556 39,900 -60 Descending Seattle Center
09:34PM 41.7611 -122.5389 347° North 480 552 39,900  Level Seattle Center
09:35PM 41.8914 -122.5789 349° North 481 554 39,900  Level Seattle Center
09:36PM 42.0478 -122.6197 348° North 477 549 40,000  Climbing Seattle Center
09:37PM 42.1803 -122.6578 348° North 481 554 40,000 -60 Level Seattle Center
09:38PM 42.3117 -122.6956 348° North 481 554 39,900 -60 Descending Seattle Center
09:39PM 42.4428 -122.7342 347° North 480 552 39,900  Level Seattle Center
09:40PM 42.5736 -122.7739 348° North 480 552 39,900  Level Seattle Center
09:41PM 42.7039 -122.8119 348° North 479 551 40,000  Climbing Seattle Center
09:42PM 42.8447 -122.8528 348° North 481 554 40,000  Level Seattle Center
09:43PM 42.9761 -122.8900 347° North 481 554 40,000  Level Seattle Center
09:44PM 43.1061 -122.9300 348° North 481 554 40,000  Level Seattle Center
09:45PM 43.2375 -122.9689 348° North 481 554 40,000  Level Seattle Center
09:46PM 43.3686 -123.0086 348° North 483 556 40,000  Level Seattle Center
09:47PM 43.4997 -123.0475 348° North 483 556 40,000  Level Seattle Center
09:48PM 43.6306 -123.0872 348° North 482 555 40,000  Level Seattle Center
09:49PM 43.7614 -123.1267 348° North 482 555 40,000  Level Seattle Center
09:50PM 43.8917 -123.1647 347° North 481 554 40,000  Level Seattle Center
09:51PM 44.0225 -123.2053 348° North 482 555 40,000  Level Seattle Center
09:52PM 44.1742 -123.2519 348° North 479 551 40,000  Level Seattle Center
09:53PM 44.3036 -123.2906 347° North 479 551 40,000  Level Seattle Center
09:54PM 44.4381 -123.3336 348° North 484 557 40,000  Level Seattle Center
09:55PM 44.5694 -123.3744 348° North 487 560 40,000  Level Seattle Center
09:57PM 44.6992 -123.4144 347° North 482 555 40,000  Level Seattle Center
09:58PM 44.8292 -123.4556 347° North 482 555 40,000  Level Seattle Center
09:59PM 44.9556 -123.4956 347° North 484 557 40,000  Level Seattle Center
10:00PM 45.1092 -123.5453 347° North 487 560 40,000  Level Seattle Center
10:01PM 45.2394 -123.5867 348° North 485 558 40,000  Level Seattle Center
10:02PM 45.3708 -123.6281 347° North 485 558 40,000  Level Seattle Center
10:03PM 45.5019 -123.6728 347° North 486 559 40,000  Level Seattle Center
10:04PM 45.6325 -123.7153 347° North 485 558 40,000  Level Seattle Center
10:05PM 45.7636 -123.7572 347° North 484 557 40,000  Level Seattle Center
10:06PM 45.8947 -123.8000 347° North 484 557 40,000  Level Seattle Center
10:07PM 46.0247 -123.8425 347° North 483 556 40,000  Level Seattle Center
10:08PM 46.1564 -123.8881 347° North 485 558 40,000  Level Seattle Center
10:09PM 46.2878 -123.9311 347° North 484 557 40,000  Level Seattle Center
10:10PM 46.4306 -123.9794 347° North 482 555 40,000  Level Seattle Center
10:11PM 46.5600 -124.0231 347° North 480 552 40,000  Level Seattle Center
10:12PM 46.6900 -124.0661 347° North 480 552 40,000  Level Seattle Center
10:13PM 46.8197 -124.1106 347° North 479 551 40,000  Level Seattle Center
10:14PM 46.9492 -124.1539 347° North 480 552 40,000  Level Seattle Center
10:15PM 47.0786 -124.1983 347° North 479 551 40,000 -60 Level Seattle Center
10:16PM 47.2344 -124.2522 347° North 480 552 39,900 -1,140 Descending Seattle Center
10:17PM 47.3669 -124.2983 347° North 487 560 37,800 -2,220 Descending Seattle Center
10:18PM 47.5025 -124.3439 346° North 498 573 35,400 -2,160 Descending Seattle Center
10:19PM 47.6325 -124.3911 347° North 486 559 33,500 -1,920 Descending Seattle Center
10:20PM 47.7567 -124.4342 347° North 463 533 31,600 -1,920 Descending Seattle Center
10:21PM 47.8744 -124.4758 347° North 440 506 29,700 -1,920 Descending Seattle Center
10:22PM 47.9867 -124.5150 349° North 419 482 27,800 -1,800 Descending Seattle Center
10:23PM 48.0917 -124.5456 30° Northeast 393 452 26,100 -1,680 Descending Seattle Center
10:24PM 48.1786 -124.4714 84° East 378 435 24,500 -1,680 Descending Seattle Center
10:25PM 48.1897 -124.3228 118° Southeast 382 440 22,800 -1,680 Descending Seattle Center
10:26PM 48.1397 -124.1808 119° Southeast 388 447 21,100 -1,860 Descending Seattle Center
10:27PM 48.0781 -124.0158 118° Southeast 379 436 19,100 -1,860 Descending Seattle Center
10:28PM 48.0292 -123.8811 119° Southeast 372 428 17,400 -1,680 Descending Seattle Center
10:29PM 47.9806 -123.7494 119° Southeast 366 421 15,800 -1,620 Descending Seattle Center
10:30PM 47.9325 -123.6211 118° Southeast 358 412 14,200 -1,560 Descending Seattle Center
10:31PM 47.8894 -123.5003 79° East 350 403 12,700 -1,440 Descending Seattle Center
10:32PM 47.9064 -123.3656 70° East 339 390 11,300 -1,320 Descending Seattle Center
10:33PM 47.9247 -123.2892 72° East 328 377 10,700 -840 Descending Seattle Center
10:33PM 47.9350 -123.2414 71° East 319 367 10,500 -540 Descending Seattle Center
10:34PM 47.9519 -123.1681 71° East 291 335 10,200 -420 Descending Seattle Center
10:34PM 47.9606 -123.1300 71° East 293 337 10,100 -420 Descending Seattle Center
10:35PM 47.9775 -123.0578 71° East 282 325 9,800 -1,020 Descending Seattle Center
10:35PM 47.9911 -122.9972 71° East 285 328 9,100 -1,140 Descending Seattle Center
10:36PM 48.0028 -122.9472 72° East 285 328 8,700 -900 Descending Seattle Center
10:36PM 48.0161 -122.8869 71° East 282 325 8,200 -900 Descending Seattle Center
10:37PM 48.0411 -122.7806 71° East 276 318 7,300 -900 Descending Seattle Center
10:38PM 48.0650 -122.6750 71° East 271 312 6,400 -900 Descending Seattle Center
10:39PM 48.0883 -122.5711 71° East 266 306 5,600 -720 Descending Seattle Center
10:40PM 48.1108 -122.4717 71° East 262 302 5,000 -540 Descending Seattle Center
10:41PM 48.1317 -122.3800 113° Southeast 236 272 4,600 -540 Descending Seattle Center
10:42PM 48.1094 -122.3033 169° South 206 237 4,000 -780 Descending Seattle Center
10:43PM 48.0578 -122.2886 179° South 194 223 3,100 -1,020 Descending Seattle Center
10:44PM 47.9994 -122.2867 180° South 173 199 2,000 -900 Descending Seattle Center
10:45PM 47.9594 -122.2869 179° South 146 168 1,300 -660 Descending Seattle Center
10:46PM 47.9281 -122.2864 179° South 146 168 700 -600 Descending Seattle Center